Time;durP1;ratioP1;P1;durP2;ratioP2;P2;SDS_P1;SDS_P2;PMS_P1;PMS_P2;Temp;Humidity;BMP_temperature;BMP_pressure;BME280_temperature;BME280_humidity;BME280_pressure;Samples;Min_cycle;Max_cycle;Signal;HPM_P1;HPM_P2
2023/11/24 00:02:13;;;;;;;10.68;4.85;;;10.00;99.90;;;;;;4997851;28;20312;-80
2023/11/24 00:04:40;;;;;;;19.15;8.13;;;10.00;99.90;;;;;;4997328;28;20246;-79
2023/11/24 00:07:07;;;;;;;9.00;3.45;;;9.90;99.90;;;;;;4997995;28;20227;-81
2023/11/24 00:09:35;;;;;;;14.32;4.13;;;9.90;99.90;;;;;;4996919;28;20313;-80
2023/11/24 00:12:02;;;;;;;12.23;5.65;;;9.90;99.90;;;;;;4989204;28;20293;-81
2023/11/24 00:14:29;;;;;;;8.15;3.38;;;9.90;99.90;;;;;;4977557;28;20323;-81
2023/11/24 00:16:57;;;;;;;10.98;3.40;;;9.90;99.90;;;;;;4978508;28;20319;-80
2023/11/24 00:19:25;;;;;;;9.00;3.15;;;9.80;99.90;;;;;;4997363;28;20317;-81
2023/11/24 00:21:51;;;;;;;12.82;5.75;;;9.80;99.90;;;;;;4996877;28;20341;-80
2023/11/24 00:24:19;;;;;;;12.98;4.20;;;9.80;99.90;;;;;;4997258;28;20227;-81
2023/11/24 00:26:47;;;;;;;10.73;4.03;;;9.80;99.90;;;;;;4996850;28;20233;-81
2023/11/24 00:29:15;;;;;;;10.38;5.10;;;9.80;99.90;;;;;;4997114;28;20227;-81
2023/11/24 00:31:43;;;;;;;9.27;3.65;;;9.80;99.90;;;;;;4996341;28;20282;-82
2023/11/24 00:34:10;;;;;;;13.95;5.45;;;9.80;99.90;;;;;;4996861;28;20257;-81
2023/11/24 00:36:37;;;;;;;10.13;4.43;;;9.80;99.90;;;;;;4996649;28;20227;-81
2023/11/24 00:39:04;;;;;;;8.02;3.65;;;9.80;99.90;;;;;;4997078;28;20301;-81
2023/11/24 00:41:32;;;;;;;12.30;5.50;;;9.80;99.90;;;;;;4980270;28;20690;-82
2023/11/24 00:44:01;;;;;;;11.73;5.13;;;9.80;99.90;;;;;;4977691;28;20294;-81
2023/11/24 00:46:29;;;;;;;10.32;3.80;;;9.70;99.90;;;;;;4977308;28;20228;-81
2023/11/24 00:48:57;;;;;;;9.50;3.47;;;9.60;99.90;;;;;;4977442;28;20254;-81
2023/11/24 00:51:24;;;;;;;7.75;3.70;;;9.60;99.90;;;;;;4977801;28;20716;-81
2023/11/24 00:53:51;;;;;;;8.60;3.42;;;9.70;99.90;;;;;;4976350;28;20283;-80
2023/11/24 00:56:18;;;;;;;10.13;2.88;;;9.60;99.90;;;;;;4977490;28;20310;-80
2023/11/24 00:58:45;;;;;;;8.13;2.95;;;9.60;99.90;;;;;;4977164;28;20228;-79
2023/11/24 01:01:13;;;;;;;6.30;2.35;;;9.60;99.90;;;;;;4977581;28;20307;-80
2023/11/24 01:03:40;;;;;;;17.67;4.55;;;9.60;99.90;;;;;;4977098;28;20573;-80
2023/11/24 01:06:08;;;;;;;14.10;4.80;;;9.50;99.90;;;;;;4992517;28;20244;-80
2023/11/24 01:08:35;;;;;;;11.82;3.72;;;9.60;99.90;;;;;;4996588;28;20223;-81
2023/11/24 01:11:02;;;;;;;10.45;3.58;;;9.60;99.90;;;;;;4996474;28;20656;-81
2023/11/24 01:13:31;;;;;;;10.07;3.20;;;9.60;99.90;;;;;;4976528;28;20231;-82
2023/11/24 01:15:58;;;;;;;14.23;6.05;;;9.50;99.90;;;;;;4976181;28;20552;-82
2023/11/24 01:18:27;;;;;;;9.68;3.63;;;9.50;99.90;;;;;;4977152;28;20314;-80
2023/11/24 01:20:54;;;;;;;16.58;3.80;;;9.50;99.90;;;;;;4966487;28;20231;-80
2023/11/24 01:23:21;;;;;;;8.57;3.55;;;9.50;99.90;;;;;;4976622;28;20286;-81
2023/11/24 01:25:48;;;;;;;12.23;3.60;;;9.50;99.90;;;;;;4976763;28;20239;-81
2023/11/24 01:28:15;;;;;;;12.70;3.13;;;9.30;99.90;;;;;;4976977;28;20237;-81
2023/11/24 01:30:43;;;;;;;11.90;4.35;;;9.30;99.90;;;;;;4976436;28;20705;-81
2023/11/24 01:33:10;;;;;;;11.30;4.13;;;9.30;99.90;;;;;;4977178;28;20310;-79
2023/11/24 01:35:38;;;;;;;9.68;3.00;;;9.30;99.90;;;;;;4976932;28;20730;-81
2023/11/24 01:38:05;;;;;;;10.60;2.97;;;9.30;99.90;;;;;;4976439;28;20250;-81
2023/11/24 01:40:34;;;;;;;14.57;5.50;;;9.30;99.90;;;;;;4976952;28;20566;-81
2023/11/24 01:43:01;;;;;;;12.68;5.00;;;9.20;99.90;;;;;;4975899;28;20322;-81
2023/11/24 01:45:28;;;;;;;10.65;2.60;;;9.20;99.90;;;;;;4976616;28;20231;-81
2023/11/24 01:47:55;;;;;;;10.55;4.50;;;9.10;99.90;;;;;;4976407;28;20557;-80
2023/11/24 01:50:22;;;;;;;10.68;4.20;;;9.00;99.90;;;;;;4976621;28;20708;-81
2023/11/24 01:52:51;;;;;;;8.73;5.25;;;9.00;99.90;;;;;;4975853;28;20566;-81
2023/11/24 01:55:19;;;;;;;9.75;4.25;;;8.90;99.90;;;;;;4976053;28;20318;-80
2023/11/24 01:57:48;;;;;;;3.67;2.05;;;8.90;99.90;;;;;;4976241;28;20285;-80
2023/11/24 02:00:19;;;;;;;6.35;2.65;;;8.80;99.90;;;;;;4976134;28;20258;-80
2023/11/24 02:02:46;;;;;;;2.30;1.65;;;8.60;99.90;;;;;;4975816;28;20235;-80
2023/11/24 02:05:14;;;;;;;5.18;2.05;;;8.50;99.90;;;;;;4976259;28;20255;-80
2023/11/24 02:07:42;;;;;;;3.05;1.25;;;8.40;99.90;;;;;;4976509;28;20617;-79
2023/11/24 02:10:11;;;;;;;5.85;1.55;;;8.20;99.90;;;;;;4975903;28;20677;-80
2023/11/24 02:12:38;;;;;;;2.95;1.30;;;8.10;99.90;;;;;;4976338;28;20234;-80
2023/11/24 02:15:07;;;;;;;3.72;1.00;;;8.00;99.90;;;;;;4975797;28;20235;-80
2023/11/24 02:17:34;;;;;;;3.08;1.67;;;8.00;99.90;;;;;;4976233;28;20234;-80
2023/11/24 02:20:05;;;;;;;1.90;1.30;;;7.90;99.90;;;;;;4975905;28;20262;-79
2023/11/24 02:22:37;;;;;;;2.15;1.00;;;7.90;99.90;;;;;;4975575;28;20270;-81
2023/11/24 02:25:05;;;;;;;3.95;2.40;;;7.90;99.90;;;;;;4975562;28;20231;-81
2023/11/24 02:27:34;;;;;;;3.38;1.13;;;7.90;99.90;;;;;;4975662;28;20289;-81
2023/11/24 02:30:01;;;;;;;4.88;1.08;;;7.90;99.90;;;;;;4975675;28;20546;-81
2023/11/24 02:32:28;;;;;;;5.35;1.35;;;7.80;99.90;;;;;;4975682;28;20235;-81
2023/11/24 02:34:55;;;;;;;3.55;1.35;;;7.80;99.90;;;;;;4975531;28;20314;-81
2023/11/24 02:37:22;;;;;;;1.67;1.05;;;7.80;99.90;;;;;;4975744;28;20224;-81
2023/11/24 02:39:50;;;;;;;2.40;1.30;;;7.80;99.90;;;;;;4975634;28;20677;-80
2023/11/24 02:42:18;;;;;;;3.60;1.50;;;7.80;99.90;;;;;;4976489;28;20301;-80
2023/11/24 02:44:46;;;;;;;4.47;1.00;;;7.80;99.90;;;;;;4976884;28;20232;-80
2023/11/24 02:47:13;;;;;;;4.53;1.55;;;7.80;99.90;;;;;;4976621;28;20223;-81
2023/11/24 02:49:40;;;;;;;6.63;2.05;;;7.80;99.90;;;;;;4975210;28;20619;-79
2023/11/24 02:52:07;;;;;;;5.65;1.50;;;7.80;99.90;;;;;;4975097;28;20227;-81
2023/11/24 02:54:34;;;;;;;4.57;2.05;;;7.80;99.90;;;;;;4975608;28;20223;-81
2023/11/24 02:57:03;;;;;;;8.25;3.53;;;7.70;99.90;;;;;;4975013;28;20219;-79
2023/11/24 02:59:30;;;;;;;6.72;1.98;;;7.70;99.90;;;;;;4974947;28;20219;-81
2023/11/24 03:01:57;;;;;;;6.97;1.75;;;7.70;99.90;;;;;;4974649;28;20239;-81
2023/11/24 03:04:24;;;;;;;3.55;1.55;;;7.70;99.90;;;;;;4975392;28;20223;-80
2023/11/24 03:06:52;;;;;;;5.63;2.10;;;7.70;99.90;;;;;;4976100;28;20306;-81
2023/11/24 03:09:23;;;;;;;6.95;1.92;;;7.80;99.90;;;;;;4975594;28;20306;-81
2023/11/24 03:11:50;;;;;;;6.28;2.08;;;7.70;99.90;;;;;;4975725;28;20233;-80
2023/11/24 03:14:20;;;;;;;7.18;2.38;;;7.80;99.90;;;;;;4975006;28;20258;-82
2023/11/24 03:16:47;;;;;;;5.93;1.70;;;7.80;99.90;;;;;;4975316;28;20241;-81
2023/11/24 03:19:14;;;;;;;8.27;3.47;;;7.80;99.90;;;;;;4974932;28;20642;-81
2023/11/24 03:21:41;;;;;;;8.27;2.33;;;7.80;99.90;;;;;;4975469;28;20235;-81
2023/11/24 03:24:08;;;;;;;7.32;2.30;;;7.80;99.90;;;;;;4974957;28;20243;-81
2023/11/24 03:26:36;;;;;;;6.25;2.10;;;7.80;99.90;;;;;;4975607;28;20617;-79
2023/11/24 03:29:03;;;;;;;7.82;2.33;;;7.80;99.90;;;;;;4974891;28;20326;-81
2023/11/24 03:31:32;;;;;;;11.00;3.00;;;7.80;99.90;;;;;;4975168;28;20243;-79
2023/11/24 03:34:01;;;;;;;5.40;1.98;;;7.80;99.90;;;;;;4974713;28;20228;-81
2023/11/24 03:36:28;;;;;;;11.57;3.35;;;7.80;99.90;;;;;;4975616;28;20661;-79
2023/11/24 03:38:55;;;;;;;8.10;2.75;;;7.80;99.90;;;;;;4975019;28;20721;-81
2023/11/24 03:41:22;;;;;;;8.15;2.80;;;7.80;99.90;;;;;;4975060;28;20239;-79
2023/11/24 03:43:49;;;;;;;12.43;4.25;;;7.80;99.90;;;;;;4975360;28;20310;-80
2023/11/24 03:46:16;;;;;;;7.45;2.65;;;7.80;99.90;;;;;;4974527;28;20628;-79
2023/11/24 03:48:45;;;;;;;8.48;2.60;;;7.90;99.90;;;;;;4975269;28;20220;-81
2023/11/24 03:51:12;;;;;;;9.68;4.85;;;7.90;99.90;;;;;;4974930;28;20313;-79
2023/11/24 03:53:39;;;;;;;5.63;2.20;;;7.90;99.90;;;;;;4974690;28;20231;-81
2023/11/24 03:56:07;;;;;;;7.85;3.15;;;7.90;99.90;;;;;;4974773;28;20607;-81
2023/11/24 03:58:34;;;;;;;6.05;2.47;;;7.90;99.90;;;;;;4974892;28;20595;-81
2023/11/24 04:01:01;;;;;;;8.57;3.38;;;8.00;99.90;;;;;;4974398;28;20573;-80
2023/11/24 04:03:28;;;;;;;16.90;4.10;;;8.00;99.90;;;;;;4974846;28;20306;-80
2023/11/24 04:05:57;;;;;;;8.43;3.25;;;8.00;99.90;;;;;;4975054;28;20219;-80
2023/11/24 04:08:23;;;;;;;17.05;3.35;;;8.10;99.90;;;;;;4974696;28;20314;-80
2023/11/24 04:10:50;;;;;;;9.27;2.95;;;8.10;99.90;;;;;;4975046;28;20223;-80
2023/11/24 04:13:17;;;;;;;10.38;3.15;;;8.10;99.90;;;;;;4974151;28;20231;-81
2023/11/24 04:15:44;;;;;;;8.95;2.90;;;8.10;99.90;;;;;;4974826;28;20685;-81
2023/11/24 04:18:11;;;;;;;7.60;3.30;;;8.10;99.90;;;;;;4975049;28;20234;-81
2023/11/24 04:20:38;;;;;;;18.15;3.75;;;8.10;99.90;;;;;;4975215;28;20499;-82
2023/11/24 04:23:13;;;;;;;7.82;3.47;;;8.10;99.90;;;;;;4964898;28;20226;-82
2023/11/24 04:25:41;;;;;;;8.88;2.28;;;8.10;99.90;;;;;;4974271;28;20306;-81
2023/11/24 04:28:08;;;;;;;7.85;2.38;;;8.00;99.90;;;;;;4974940;28;20227;-82
2023/11/24 04:30:35;;;;;;;9.15;2.60;;;8.00;99.90;;;;;;4975290;28;20255;-81
2023/11/24 04:33:03;;;;;;;5.35;2.00;;;8.00;99.90;;;;;;4975389;28;20232;-80
2023/11/24 04:35:30;;;;;;;2.00;1.48;;;7.90;99.90;;;;;;4974680;28;20223;-80
2023/11/24 04:37:57;;;;;;;4.53;1.70;;;7.80;99.90;;;;;;4975102;28;20255;-79
2023/11/24 04:40:25;;;;;;;3.75;2.03;;;7.70;99.90;;;;;;4974650;28;20262;-80
2023/11/24 04:42:52;;;;;;;3.92;1.70;;;7.70;99.90;;;;;;4974472;28;20251;-80
2023/11/24 04:45:19;;;;;;;8.82;1.65;;;7.70;99.90;;;;;;4975154;28;20231;-80
2023/11/24 04:47:46;;;;;;;2.70;1.58;;;7.60;99.90;;;;;;4978230;28;20310;-81
2023/11/24 04:50:16;;;;;;;3.75;1.58;;;7.60;99.90;;;;;;4977942;28;20649;-80
2023/11/24 04:52:45;;;;;;;4.90;1.85;;;7.50;99.90;;;;;;4977734;28;20231;-80
2023/11/24 04:55:13;;;;;;;4.55;1.35;;;7.50;99.90;;;;;;4977174;28;20258;-79
2023/11/24 04:57:42;;;;;;;3.95;1.63;;;7.40;99.90;;;;;;4978348;28;20290;-79
2023/11/24 05:00:10;;;;;;;9.23;2.28;;;7.40;99.90;;;;;;4981292;28;20696;-81
2023/11/24 05:02:37;;;;;;;5.85;1.70;;;7.40;99.90;;;;;;4988257;28;20234;-81
2023/11/24 05:05:04;;;;;;;3.78;1.92;;;7.30;99.90;;;;;;4994599;28;20247;-80
2023/11/24 05:07:31;;;;;;;7.95;1.48;;;7.30;99.90;;;;;;4996059;28;20222;-81
2023/11/24 05:09:58;;;;;;;7.72;1.90;;;7.30;99.90;;;;;;4996938;28;20223;-80
2023/11/24 05:12:25;;;;;;;9.50;3.28;;;7.30;99.90;;;;;;4995907;28;20247;-79
2023/11/24 05:14:54;;;;;;;6.35;2.22;;;7.30;99.90;;;;;;4995422;28;20258;-81
2023/11/24 05:17:21;;;;;;;4.18;1.50;;;7.20;99.90;;;;;;4991472;28;20226;-79
2023/11/24 05:19:48;;;;;;;6.72;1.92;;;7.20;99.90;;;;;;4993359;28;20559;-79
2023/11/24 05:22:15;;;;;;;7.47;3.00;;;7.20;99.90;;;;;;4988210;28;20250;-81
2023/11/24 05:24:42;;;;;;;3.83;2.13;;;7.10;99.90;;;;;;4989038;28;20223;-80
2023/11/24 05:27:09;;;;;;;8.45;2.20;;;7.20;99.90;;;;;;4987409;28;20294;-80
2023/11/24 05:29:36;;;;;;;8.82;2.40;;;7.20;99.90;;;;;;4984625;28;20216;-81
2023/11/24 05:32:05;;;;;;;10.75;2.65;;;7.20;99.90;;;;;;4989852;28;20247;-81
2023/11/24 05:34:32;;;;;;;5.78;1.80;;;7.20;99.90;;;;;;4986183;28;20259;-81
2023/11/24 05:37:03;;;;;;;8.52;2.78;;;7.20;99.90;;;;;;4980933;28;20215;-81
2023/11/24 05:39:30;;;;;;;4.65;1.90;;;7.20;99.90;;;;;;4985659;28;20246;-81
2023/11/24 05:41:58;;;;;;;5.78;1.67;;;7.20;99.90;;;;;;4983442;28;20231;-81
2023/11/24 05:44:25;;;;;;;5.40;1.80;;;7.20;99.90;;;;;;4989348;28;20227;-81
2023/11/24 05:46:52;;;;;;;7.57;2.10;;;7.10;99.90;;;;;;4979769;28;20309;-79
2023/11/24 05:49:21;;;;;;;4.20;1.80;;;7.10;99.90;;;;;;4981439;28;20247;-80
2023/11/24 05:51:48;;;;;;;5.93;2.53;;;7.10;99.90;;;;;;4986948;28;20231;-80
2023/11/24 05:54:15;;;;;;;7.35;3.22;;;7.20;99.90;;;;;;4990209;28;20622;-80
2023/11/24 05:56:42;;;;;;;5.43;3.70;;;7.20;99.90;;;;;;4980812;28;20243;-80
2023/11/24 05:59:09;;;;;;;6.15;2.67;;;7.10;99.90;;;;;;4985463;28;20315;-81
2023/11/24 06:01:36;;;;;;;3.90;2.25;;;7.20;99.90;;;;;;4987831;28;20717;-79
2023/11/24 06:04:03;;;;;;;4.80;2.05;;;7.20;99.90;;;;;;4984600;28;20700;-79
2023/11/24 06:06:31;;;;;;;2.85;1.92;;;7.20;99.90;;;;;;4981773;28;20310;-80
2023/11/24 06:08:59;;;;;;;3.67;1.70;;;7.30;99.90;;;;;;4979130;28;20219;-79
2023/11/24 06:11:26;;;;;;;3.53;1.80;;;7.30;99.90;;;;;;4982467;28;20247;-78
2023/11/24 06:13:53;;;;;;;4.38;1.60;;;7.30;99.90;;;;;;4979465;28;20640;-78
2023/11/24 06:16:20;;;;;;;3.88;2.05;;;7.30;99.90;;;;;;4979215;28;20254;-79
2023/11/24 06:18:47;;;;;;;8.48;2.83;;;7.40;99.90;;;;;;4981378;28;20358;-78
2023/11/24 06:21:14;;;;;;;5.13;1.85;;;7.30;99.90;;;;;;4979182;28;20673;-79
2023/11/24 06:23:45;;;;;;;3.45;1.80;;;7.30;99.90;;;;;;4977599;28;20227;-78
2023/11/24 06:26:14;;;;;;;3.10;1.55;;;7.40;99.90;;;;;;4978133;28;20226;-78
2023/11/24 06:28:41;;;;;;;4.55;2.00;;;7.40;99.90;;;;;;4976408;28;20223;-79
2023/11/24 06:31:08;;;;;;;11.75;3.22;;;7.40;99.90;;;;;;4977432;28;20235;-80
2023/11/24 06:33:35;;;;;;;5.95;3.83;;;7.40;99.90;;;;;;4978250;28;20228;-80
2023/11/24 06:36:02;;;;;;;6.13;3.53;;;7.40;99.90;;;;;;4978906;28;20228;-79
2023/11/24 06:38:30;;;;;;;11.90;5.30;;;7.40;99.90;;;;;;4976052;28;20262;-80
2023/11/24 06:40:58;;;;;;;8.05;3.10;;;7.40;99.90;;;;;;4976651;28;20225;-79
2023/11/24 06:43:25;;;;;;;8.52;1.95;;;7.40;99.90;;;;;;4975733;28;20238;-80
2023/11/24 06:45:52;;;;;;;10.23;1.95;;;7.40;99.90;;;;;;4976159;28;20251;-78
2023/11/24 06:48:23;;;;;;;10.50;2.95;;;7.40;99.90;;;;;;4975653;28;20656;-79
2023/11/24 06:50:50;;;;;;;5.13;1.95;;;7.40;99.90;;;;;;4975712;28;20616;-79
2023/11/24 06:53:19;;;;;;;10.98;2.70;;;7.40;99.90;;;;;;4975312;28;20242;-80
2023/11/24 06:55:47;;;;;;;4.50;1.65;;;7.50;99.90;;;;;;4975047;28;20230;-79
2023/11/24 06:58:15;;;;;;;9.10;3.85;;;7.50;99.90;;;;;;4975660;28;20562;-79
2023/11/24 07:00:42;;;;;;;5.50;2.88;;;7.60;99.90;;;;;;4975452;28;20314;-80
2023/11/24 07:03:09;;;;;;;6.90;3.13;;;7.60;99.90;;;;;;4975623;28;20235;-79
2023/11/24 07:05:39;;;;;;;8.63;3.20;;;7.60;99.90;;;;;;4975304;28;20684;-80
2023/11/24 07:08:06;;;;;;;10.27;3.90;;;7.70;99.90;;;;;;4975455;28;20278;-80
2023/11/24 07:10:33;;;;;;;6.88;3.90;;;7.80;99.90;;;;;;4974964;28;20227;-80
2023/11/24 07:13:01;;;;;;;13.45;3.63;;;7.80;99.90;;;;;;4975852;28;20310;-81
2023/11/24 07:15:30;;;;;;;9.00;4.88;;;7.80;99.90;;;;;;4974815;28;20239;-80
2023/11/24 07:17:57;;;;;;;4.80;2.90;;;7.80;99.90;;;;;;4975923;28;20326;-79
2023/11/24 07:20:24;;;;;;;5.90;2.67;;;7.80;99.90;;;;;;4974582;28;20709;-79
2023/11/24 07:22:51;;;;;;;5.10;2.22;;;7.70;99.90;;;;;;4976162;28;20227;-80
2023/11/24 07:25:18;;;;;;;9.20;3.55;;;7.70;99.90;;;;;;4975938;28;20269;-81
2023/11/24 07:27:45;;;;;;;6.75;2.38;;;7.70;99.90;;;;;;4965905;28;20242;-81
2023/11/24 07:30:13;;;;;;;5.90;1.83;;;7.60;99.90;;;;;;4967635;28;20231;-81
2023/11/24 07:32:41;;;;;;;6.28;2.42;;;7.60;99.90;;;;;;4975809;28;20262;-81
2023/11/24 07:35:13;;;;;;;9.68;2.53;;;7.60;99.90;;;;;;4975858;28;20258;-80
2023/11/24 07:37:40;;;;;;;5.03;2.90;;;7.50;99.90;;;;;;4975465;28;20306;-81
2023/11/24 07:40:13;;;;;;;6.55;2.20;;;7.60;99.90;;;;;;4976311;28;20632;-81
2023/11/24 07:42:41;;;;;;;11.55;2.45;;;7.60;99.90;;;;;;4975522;28;20243;-80
2023/11/24 07:45:10;;;;;;;9.45;3.55;;;7.50;99.90;;;;;;4975434;28;20228;-81
2023/11/24 07:47:37;;;;;;;6.10;2.38;;;7.50;99.90;;;;;;4975119;28;20231;-80
2023/11/24 07:50:07;;;;;;;7.15;2.60;;;7.50;99.90;;;;;;4976436;28;20255;-80
2023/11/24 07:52:34;;;;;;;6.82;2.10;;;7.50;99.90;;;;;;4975393;28;20231;-80
2023/11/24 07:55:01;;;;;;;3.90;2.35;;;7.40;99.90;;;;;;4975699;28;20235;-81
2023/11/24 07:57:28;;;;;;;7.90;2.85;;;7.50;99.90;;;;;;4975427;28;20317;-81
2023/11/24 07:59:55;;;;;;;9.15;2.45;;;7.50;99.90;;;;;;4975776;28;20227;-81
2023/11/24 08:02:22;;;;;;;5.30;1.90;;;7.50;99.90;;;;;;4976092;28;20291;-80
2023/11/24 08:04:49;;;;;;;5.88;2.50;;;7.50;99.90;;;;;;4974600;28;20251;-81
2023/11/24 08:07:18;;;;;;;14.52;3.25;;;7.50;99.90;;;;;;4975088;28;20682;-80
2023/11/24 08:09:45;;;;;;;4.90;2.22;;;7.60;99.90;;;;;;4975111;28;20700;-79
2023/11/24 08:12:12;;;;;;;6.35;2.33;;;7.50;99.90;;;;;;4975220;28;20230;-81
2023/11/24 08:14:39;;;;;;;10.35;3.90;;;7.60;99.90;;;;;;4974443;28;20228;-81
2023/11/24 08:17:06;;;;;;;9.32;3.67;;;7.60;99.90;;;;;;4975284;28;20307;-80
2023/11/24 08:19:33;;;;;;;5.97;2.65;;;7.70;99.90;;;;;;4975692;28;20259;-80
2023/11/24 08:22:00;;;;;;;5.03;3.17;;;7.70;99.90;;;;;;4978643;28;20227;-81
2023/11/24 08:24:29;;;;;;;6.88;2.55;;;7.70;99.90;;;;;;4979656;28;20310;-79
2023/11/24 08:26:59;;;;;;;8.85;2.40;;;7.80;99.90;;;;;;4978137;28;20303;-80
2023/11/24 08:29:26;;;;;;;3.90;2.40;;;7.80;99.90;;;;;;4978451;28;20568;-80
2023/11/24 08:31:53;;;;;;;12.10;2.03;;;7.80;99.90;;;;;;4977668;28;20235;-80
2023/11/24 08:34:20;;;;;;;4.05;2.42;;;7.80;99.90;;;;;;4978794;28;20278;-80
2023/11/24 08:36:47;;;;;;;3.05;2.40;;;7.80;99.90;;;;;;4978174;28;20227;-79
2023/11/24 08:39:14;;;;;;;4.45;2.63;;;7.80;99.90;;;;;;4978343;28;20247;-80
2023/11/24 08:41:48;;;;;;;10.13;3.80;;;7.80;99.90;;;;;;4977704;28;20231;-80
2023/11/24 08:44:15;;;;;;;6.88;1.80;;;7.70;99.90;;;;;;4978702;28;20555;-80
2023/11/24 08:46:43;;;;;;;5.43;2.00;;;7.80;99.90;;;;;;4977906;28;20253;-80
2023/11/24 08:49:10;;;;;;;9.68;2.75;;;7.80;99.90;;;;;;4978053;28;20239;-80
2023/11/24 08:51:39;;;;;;;9.50;2.88;;;7.80;99.90;;;;;;4977841;28;20227;-81
2023/11/24 08:54:06;;;;;;;7.47;2.58;;;7.70;99.90;;;;;;4978200;28;20290;-79
2023/11/24 08:56:33;;;;;;;9.15;3.10;;;7.70;99.90;;;;;;4978913;28;20318;-79
2023/11/24 08:59:03;;;;;;;7.38;3.20;;;7.70;99.90;;;;;;4978130;28;20223;-80
2023/11/24 09:01:30;;;;;;;8.95;2.40;;;7.70;99.90;;;;;;4978665;28;20238;-80
2023/11/24 09:03:57;;;;;;;7.07;3.17;;;7.70;99.90;;;;;;4978456;28;21931;-79
2023/11/24 09:06:27;;;;;;;7.03;3.58;;;7.70;99.90;;;;;;4978247;28;20227;-80
2023/11/24 09:08:56;;;;;;;8.40;5.20;;;7.70;99.90;;;;;;4978224;28;20247;-80
2023/11/24 09:11:23;;;;;;;8.32;2.42;;;7.70;99.90;;;;;;4978890;28;20310;-80
2023/11/24 09:13:51;;;;;;;5.97;2.80;;;7.80;99.90;;;;;;4978170;28;20223;-80
2023/11/24 09:16:20;;;;;;;4.72;2.20;;;7.80;99.90;;;;;;4978484;28;20708;-80
2023/11/24 09:18:47;;;;;;;2.95;1.60;;;7.80;99.90;;;;;;4977993;28;20227;-80
2023/11/24 09:21:14;;;;;;;8.77;2.30;;;7.90;99.90;;;;;;4978723;28;20228;-79
2023/11/24 09:23:41;;;;;;;2.90;2.10;;;7.90;99.90;;;;;;4977178;28;20231;-79
2023/11/24 09:26:09;;;;;;;6.18;2.22;;;7.90;99.90;;;;;;4977895;28;20558;-79
2023/11/24 09:28:37;;;;;;;2.30;1.60;;;7.90;99.90;;;;;;4977709;28;20318;-79
2023/11/24 09:31:08;;;;;;;11.70;2.40;;;8.00;99.90;;;;;;4977107;28;20223;-80
2023/11/24 09:33:37;;;;;;;4.20;2.38;;;7.90;99.90;;;;;;4977444;28;20678;-80
2023/11/24 09:36:06;;;;;;;10.25;4.47;;;8.00;99.90;;;;;;4977116;28;20227;-79
2023/11/24 09:38:33;;;;;;;7.10;3.80;;;8.00;99.90;;;;;;4977778;28;20322;-80
2023/11/24 09:41:07;;;;;;;6.45;3.42;;;8.00;99.90;;;;;;4977531;28;20234;-79
2023/11/24 09:43:35;;;;;;;5.72;2.75;;;8.00;99.90;;;;;;4977839;28;20301;-80
2023/11/24 09:46:02;;;;;;;11.98;3.40;;;8.00;99.90;;;;;;4977302;28;20281;-80
2023/11/24 09:48:33;;;;;;;10.82;4.53;;;8.00;99.90;;;;;;4977571;28;20297;-81
2023/11/24 09:51:03;;;;;;;8.30;3.35;;;8.00;99.90;;;;;;4976776;28;20420;-81
2023/11/24 09:53:34;;;;;;;11.25;4.55;;;8.00;99.90;;;;;;4977145;28;20246;-79
2023/11/24 09:56:02;;;;;;;9.15;3.72;;;8.10;99.90;;;;;;4976470;28;20315;-82
2023/11/24 09:58:29;;;;;;;4.95;2.95;;;8.10;99.90;;;;;;4977213;28;20339;-80
2023/11/24 10:01:05;;;;;;;19.08;5.55;;;8.00;99.90;;;;;;4977239;28;20231;-81
2023/11/24 10:03:35;;;;;;;8.40;5.35;;;8.00;99.90;;;;;;4977587;28;20262;-80
2023/11/24 10:06:04;;;;;;;9.25;3.60;;;8.00;99.90;;;;;;4977145;28;22534;-82
2023/11/24 10:08:31;;;;;;;5.38;2.45;;;8.10;99.90;;;;;;4976932;28;20674;-79
2023/11/24 10:11:12;;;;;;;7.47;2.83;;;8.10;99.90;;;;;;4976782;28;20235;-79
2023/11/24 10:13:40;;;;;;;6.88;2.50;;;8.20;99.90;;;;;;4976624;28;20577;-79
2023/11/24 10:16:07;;;;;;;6.30;3.42;;;8.20;99.90;;;;;;4976212;28;20239;-80
2023/11/24 10:18:34;;;;;;;9.35;2.78;;;8.30;99.90;;;;;;4976852;28;20243;-79
2023/11/24 10:21:04;;;;;;;5.25;2.95;;;8.30;99.90;;;;;;4976678;28;20227;-79
2023/11/24 10:23:31;;;;;;;5.05;3.30;;;8.20;99.90;;;;;;4975857;28;20235;-79
2023/11/24 10:25:59;;;;;;;9.60;4.13;;;8.20;99.90;;;;;;4976503;28;20530;-79
2023/11/24 10:28:26;;;;;;;6.40;3.08;;;8.20;99.90;;;;;;4975300;28;20233;-79
2023/11/24 10:30:54;;;;;;;8.05;3.47;;;8.20;99.90;;;;;;4976864;28;20251;-81
2023/11/24 10:33:21;;;;;;;5.80;3.60;;;8.20;99.90;;;;;;4976098;28;20310;-81
2023/11/24 10:35:49;;;;;;;10.77;4.57;;;8.30;99.90;;;;;;4977299;28;20528;-80
2023/11/24 10:38:20;;;;;;;8.88;3.05;;;8.20;99.90;;;;;;4976341;28;20258;-80
2023/11/24 10:40:50;;;;;;;4.85;2.63;;;8.20;99.90;;;;;;4978080;28;20219;-81
2023/11/24 10:43:19;;;;;;;4.57;2.70;;;8.10;99.90;;;;;;4975710;28;20306;-81
2023/11/24 10:45:51;;;;;;;5.43;3.15;;;8.00;99.90;;;;;;4976829;28;20230;-80
2023/11/24 10:48:21;;;;;;;6.35;2.38;;;8.10;99.90;;;;;;4976519;28;20231;-81
2023/11/24 10:50:57;;;;;;;3.53;2.70;;;8.10;99.90;;;;;;4976746;28;20289;-81
2023/11/24 10:53:34;;;;;;;6.55;2.83;;;8.20;99.90;;;;;;4976003;28;20231;-81
2023/11/24 10:56:03;;;;;;;8.75;2.42;;;8.10;99.90;;;;;;4976700;28;20575;-82
2023/11/24 10:58:30;;;;;;;6.57;3.08;;;8.00;99.90;;;;;;4976843;28;20562;-80
2023/11/24 11:03:52;;;;;;;7.80;2.55;;;8.00;99.90;;;;;;5025327;23;20229;-79
2023/11/24 11:06:29;;;;;;;6.55;2.78;;;8.00;99.90;;;;;;5015348;28;20226;-79
2023/11/24 11:09:09;;;;;;;4.20;2.70;;;8.00;99.90;;;;;;5017028;28;20571;-79
2023/11/24 11:12:19;;;;;;;5.82;2.92;;;8.00;99.90;;;;;;5017444;28;20244;-78
2023/11/24 11:14:48;;;;;;;6.18;3.38;;;8.00;99.90;;;;;;5017328;28;20242;-80
2023/11/24 11:17:17;;;;;;;7.03;3.60;;;7.90;99.90;;;;;;5015266;28;20300;-79
2023/11/24 11:19:58;;;;;;;9.75;3.60;;;7.90;99.90;;;;;;5014407;28;20245;-80
2023/11/24 11:22:28;;;;;;;5.13;2.58;;;7.90;99.90;;;;;;5013655;28;20233;-79
2023/11/24 11:25:32;;;;;;;9.18;3.53;;;8.00;99.90;;;;;;5014451;28;20242;-79
2023/11/24 11:28:45;;;;;;;7.75;2.97;;;8.00;99.90;;;;;;5015339;28;20229;-80
2023/11/24 11:31:33;;;;;;;6.88;2.88;;;8.00;99.90;;;;;;5014686;28;20307;-79
2023/11/24 11:34:17;;;;;;;8.07;2.75;;;8.00;99.90;;;;;;5014010;28;20241;-80
2023/11/24 11:37:01;;;;;;;5.50;2.00;;;8.10;99.90;;;;;;5015091;28;20241;-81
2023/11/24 11:39:31;;;;;;;5.40;2.35;;;8.10;99.90;;;;;;5015551;28;20241;-81
2023/11/24 11:41:58;;;;;;;7.32;2.13;;;8.10;99.90;;;;;;5014985;28;20309;-80
2023/11/24 11:44:33;;;;;;;6.15;2.42;;;8.10;99.90;;;;;;5014872;28;20693;-81
2023/11/24 11:47:15;;;;;;;4.22;1.95;;;8.10;99.90;;;;;;5015034;28;20236;-80
2023/11/24 11:49:42;;;;;;;6.40;1.90;;;8.20;99.90;;;;;;5015319;28;20240;-79
2023/11/24 11:52:13;;;;;;;5.72;1.63;;;8.20;99.90;;;;;;5014882;28;20244;-80
2023/11/24 11:54:41;;;;;;;6.97;3.15;;;8.20;99.90;;;;;;5015934;28;20712;-79
2023/11/24 11:57:10;;;;;;;9.70;3.15;;;8.20;99.90;;;;;;5019935;28;20230;-80
2023/11/24 11:59:39;;;;;;;6.90;2.22;;;8.20;99.90;;;;;;5019880;28;20225;-79
2023/11/24 12:02:11;;;;;;;5.63;2.80;;;8.20;99.90;;;;;;5021146;28;20254;-79
2023/11/24 12:04:41;;;;;;;4.07;2.10;;;8.20;99.90;;;;;;5019076;28;20237;-81
2023/11/24 12:07:10;;;;;;;5.63;1.85;;;8.10;99.90;;;;;;5018195;28;20229;-79
2023/11/24 12:09:39;;;;;;;3.67;1.70;;;8.10;99.90;;;;;;5017465;28;20688;-81
2023/11/24 12:12:06;;;;;;;4.25;1.95;;;8.10;99.90;;;;;;5018170;28;20241;-82
2023/11/24 12:14:33;;;;;;;7.25;2.60;;;8.10;99.90;;;;;;5018379;28;20261;-79
2023/11/24 12:17:03;;;;;;;5.47;2.88;;;8.10;99.90;;;;;;5017457;28;20230;-79
2023/11/24 12:19:30;;;;;;;4.13;2.70;;;8.20;99.90;;;;;;5018791;28;20221;-81
2023/11/24 12:22:00;;;;;;;3.72;1.90;;;8.20;99.90;;;;;;5018129;28;20230;-81
2023/11/24 12:24:28;;;;;;;4.45;2.15;;;8.30;99.90;;;;;;5018998;28;20313;-80
2023/11/24 12:26:57;;;;;;;7.05;3.35;;;8.40;99.90;;;;;;5018703;28;20563;-82
2023/11/24 12:29:26;;;;;;;3.75;2.67;;;8.40;99.90;;;;;;5018048;28;20284;-80
2023/11/24 12:31:54;;;;;;;8.65;2.30;;;8.50;99.90;;;;;;5017928;28;20221;-78
2023/11/24 12:34:24;;;;;;;6.32;2.67;;;8.50;99.90;;;;;;5019485;28;20222;-79
2023/11/24 12:36:53;;;;;;;5.80;2.45;;;8.60;99.90;;;;;;5021540;28;20304;-78
2023/11/24 12:39:24;;;;;;;5.10;2.30;;;8.60;99.90;;;;;;5020084;28;20222;-79
2023/11/24 12:41:55;;;;;;;5.43;2.08;;;8.60;99.90;;;;;;5018594;28;20691;-80
2023/11/24 12:44:25;;;;;;;4.88;2.35;;;8.70;99.90;;;;;;5016913;28;20222;-79
2023/11/24 12:47:08;;;;;;;6.07;2.78;;;8.60;99.90;;;;;;5017560;28;20309;-80
2023/11/24 12:50:07;;;;;;;8.77;2.90;;;8.60;99.90;;;;;;5018810;28;20233;-81
2023/11/24 12:52:35;;;;;;;4.65;3.10;;;8.60;99.90;;;;;;5017923;28;20218;-79
2023/11/24 12:55:07;;;;;;;4.93;2.40;;;8.60;99.90;;;;;;5018851;28;20622;-79
2023/11/24 12:57:34;;;;;;;8.65;2.42;;;8.60;99.90;;;;;;5017800;28;20288;-79
2023/11/24 13:00:08;;;;;;;5.00;1.80;;;8.60;99.90;;;;;;5019084;28;20229;-79
2023/11/24 13:02:36;;;;;;;7.60;2.60;;;8.60;99.90;;;;;;5017807;28;20762;-80
2023/11/24 13:05:07;;;;;;;7.78;2.00;;;8.60;99.90;;;;;;5016905;28;20222;-80
2023/11/24 13:07:34;;;;;;;14.57;3.15;;;8.60;99.90;;;;;;5015794;28;20230;-81